Time;durP1;ratioP1;P1;durP2;ratioP2;P2;SDS_P1;SDS_P2;PMS_P1;PMS_P2;Temp;Humidity;BMP_temperature;BMP_pressure;BME280_temperature;BME280_humidity;BME280_pressure;Samples;Min_cycle;Max_cycle;Signal;HPM_P1;HPM_P2
2023/07/13 00:00:47;;;;;;;0.70;0.50;;;;;;;;;;5053448;28;20108;-51
2023/07/13 00:03:18;;;;;;;0.70;0.65;;;;;;;;;;5054023;28;20029;-54
2023/07/13 00:05:52;;;;;;;1.10;0.65;;;;;;;;;;5053696;28;20027;-54
2023/07/13 00:08:20;;;;;;;1.10;0.60;;;;;;;;;;5053318;28;20087;-52
2023/07/13 00:10:48;;;;;;;1.23;0.73;;;;;;;;;;5053896;28;20052;-52
2023/07/13 00:13:17;;;;;;;0.95;0.80;;;;;;;;;;5053346;28;20041;-50
2023/07/13 00:15:53;;;;;;;0.68;0.63;;;;;;;;;;5053720;28;20455;-51
2023/07/13 00:18:24;;;;;;;0.70;0.63;;;;;;;;;;5053206;28;20135;-52
2023/07/13 00:20:56;;;;;;;0.50;0.50;;;;;;;;;;5053105;28;20458;-51
2023/07/13 00:23:26;;;;;;;0.82;0.70;;;;;;;;;;5053458;28;20029;-51
2023/07/13 00:25:56;;;;;;;0.82;0.50;;;;;;;;;;5053386;28;20078;-55
2023/07/13 00:28:24;;;;;;;1.05;0.70;;;;;;;;;;5052950;28;20041;-50
2023/07/13 00:30:54;;;;;;;0.50;0.50;;;;;;;;;;5053208;28;20047;-54
2023/07/13 00:33:33;;;;;;;0.80;0.65;;;;;;;;;;5052854;28;20114;-52
2023/07/13 00:36:07;;;;;;;1.00;0.68;;;;;;;;;;5035110;28;20029;-52
2023/07/13 00:38:38;;;;;;;0.85;0.60;;;;;;;;;;5053162;28;20032;-50
2023/07/13 00:41:08;;;;;;;0.77;0.50;;;;;;;;;;5052128;28;20478;-51
2023/07/13 00:43:36;;;;;;;1.83;0.70;;;;;;;;;;5053006;28;20032;-52
2023/07/13 00:46:24;;;;;;;0.55;0.50;;;;;;;;;;5052717;28;20025;-52
2023/07/13 00:48:53;;;;;;;0.90;0.60;;;;;;;;;;5052968;28;20029;-51
2023/07/13 00:51:41;;;;;;;0.40;0.40;;;;;;;;;;5052765;28;20024;-51
2023/07/13 00:54:14;;;;;;;1.70;0.60;;;;;;;;;;5052102;28;20025;-50
2023/07/13 00:56:46;;;;;;;0.70;0.60;;;;;;;;;;5052775;28;20479;-53
2023/07/13 00:59:14;;;;;;;0.73;0.60;;;;;;;;;;5052675;28;20467;-51
2023/07/13 01:01:42;;;;;;;0.70;0.55;;;;;;;;;;5052697;28;20062;-53
2023/07/13 01:04:18;;;;;;;0.88;0.60;;;;;;;;;;5052614;28;20067;-52
2023/07/13 01:06:49;;;;;;;1.23;0.70;;;;;;;;;;5052301;28;20399;-51
2023/07/13 01:09:17;;;;;;;0.80;0.60;;;;;;;;;;5052444;28;20049;-51
2023/07/13 01:11:52;;;;;;;1.35;0.50;;;;;;;;;;5052459;28;20021;-50
2023/07/13 01:14:28;;;;;;;0.93;0.60;;;;;;;;;;5052449;28;20360;-52
2023/07/13 01:17:00;;;;;;;1.42;0.60;;;;;;;;;;5052384;28;20090;-51
2023/07/13 01:19:38;;;;;;;0.70;0.65;;;;;;;;;;5051991;28;20087;-51
2023/07/13 01:22:25;;;;;;;0.85;0.60;;;;;;;;;;5052323;28;20494;-51
2023/07/13 01:24:58;;;;;;;0.95;0.70;;;;;;;;;;5052272;28;20025;-50
2023/07/13 01:27:30;;;;;;;0.80;0.60;;;;;;;;;;5052205;28;20048;-52
2023/07/13 01:30:10;;;;;;;0.85;0.45;;;;;;;;;;5051870;28;20103;-51
2023/07/13 01:32:43;;;;;;;0.60;0.55;;;;;;;;;;5051248;28;20094;-53
2023/07/13 01:35:12;;;;;;;1.08;0.70;;;;;;;;;;5052119;28;20475;-51
2023/07/13 01:37:39;;;;;;;0.88;0.70;;;;;;;;;;5051878;28;20507;-53
2023/07/13 01:40:08;;;;;;;0.50;0.50;;;;;;;;;;5051905;28;20043;-53
2023/07/13 01:42:39;;;;;;;0.50;0.50;;;;;;;;;;5051775;28;20112;-53
2023/07/13 01:45:07;;;;;;;0.63;0.57;;;;;;;;;;5052006;28;20033;-52
2023/07/13 01:47:35;;;;;;;0.50;0.50;;;;;;;;;;5051797;28;20032;-50
2023/07/13 01:50:07;;;;;;;1.52;0.70;;;;;;;;;;5052045;28;20086;-52
2023/07/13 01:52:37;;;;;;;0.50;0.50;;;;;;;;;;5051718;28;20537;-50
2023/07/13 01:55:13;;;;;;;0.50;0.50;;;;;;;;;;5052105;28;20108;-51
2023/07/13 01:57:46;;;;;;;0.68;0.50;;;;;;;;;;5051384;28;20037;-51
2023/07/13 02:00:14;;;;;;;0.52;0.50;;;;;;;;;;5051438;28;20072;-52
2023/07/13 02:02:45;;;;;;;0.77;0.60;;;;;;;;;;5051663;28;20521;-52
2023/07/13 02:05:23;;;;;;;0.50;0.50;;;;;;;;;;5051679;28;20035;-51
2023/07/13 02:07:52;;;;;;;0.85;0.65;;;;;;;;;;5051453;28;20033;-53
2023/07/13 02:10:28;;;;;;;0.60;0.55;;;;;;;;;;5051432;28;20043;-51
2023/07/13 02:12:56;;;;;;;0.90;0.60;;;;;;;;;;5051495;28;20449;-54
2023/07/13 02:15:27;;;;;;;0.40;0.40;;;;;;;;;;5033469;28;20037;-52
2023/07/13 02:17:54;;;;;;;0.50;0.50;;;;;;;;;;5051467;28;20033;-53
2023/07/13 02:20:26;;;;;;;0.73;0.60;;;;;;;;;;5051446;28;20060;-50
2023/07/13 02:22:54;;;;;;;0.50;0.50;;;;;;;;;;5051486;28;20113;-54
2023/07/13 02:25:26;;;;;;;0.60;0.50;;;;;;;;;;5051519;28;20036;-50
2023/07/13 02:27:58;;;;;;;0.50;0.40;;;;;;;;;;5051138;28;20033;-54
2023/07/13 02:30:26;;;;;;;1.02;0.63;;;;;;;;;;5051363;28;20071;-51
2023/07/13 02:32:57;;;;;;;0.77;0.40;;;;;;;;;;5051234;28;20128;-50
2023/07/13 02:35:31;;;;;;;0.60;0.60;;;;;;;;;;5051357;28;20040;-50
2023/07/13 02:37:59;;;;;;;0.70;0.50;;;;;;;;;;5051357;28;20075;-53
2023/07/13 02:40:39;;;;;;;;;;;;;;;;;;;;;
2023/07/13 02:43:11;;;;;;;0.85;0.52;;;;;;;;;;5046625;28;20517;-51
2023/07/13 02:45:47;;;;;;;0.55;0.43;;;;;;;;;;5051332;28;20025;-50
2023/07/13 02:48:18;;;;;;;0.50;0.40;;;;;;;;;;5051160;28;20053;-52
2023/07/13 02:50:46;;;;;;;0.50;0.50;;;;;;;;;;5049878;28;20124;-51
2023/07/13 02:53:13;;;;;;;0.60;0.50;;;;;;;;;;5051148;28;20021;-51
2023/07/13 02:55:47;;;;;;;0.52;0.52;;;;;;;;;;5051142;28;20055;-52
2023/07/13 02:58:17;;;;;;;0.43;0.43;;;;;;;;;;5050920;28;20091;-51
2023/07/13 03:00:46;;;;;;;0.50;0.50;;;;;;;;;;5051028;28;20025;-51
2023/07/13 03:03:24;;;;;;;0.50;0.40;;;;;;;;;;5049441;28;20045;-53
2023/07/13 03:06:00;;;;;;;0.70;0.50;;;;;;;;;;5054639;28;20108;-50
2023/07/13 03:11:17;;;;;;;0.47;0.45;;;;;;;;;;5051872;28;20041;-51
2023/07/13 03:13:45;;;;;;;0.60;0.50;;;;;;;;;;5054786;28;20032;-50
2023/07/13 03:16:14;;;;;;;0.65;0.50;;;;;;;;;;5054779;28;20028;-53
2023/07/13 03:18:41;;;;;;;0.45;0.40;;;;;;;;;;5054483;28;20029;-50
2023/07/13 03:21:09;;;;;;;0.60;0.50;;;;;;;;;;5054369;28;20033;-51
2023/07/13 03:23:37;;;;;;;0.60;0.40;;;;;;;;;;5054606;28;20112;-52
2023/07/13 03:26:21;;;;;;;0.50;0.50;;;;;;;;;;5054546;28;20036;-52
2023/07/13 03:28:50;;;;;;;0.50;0.40;;;;;;;;;;5054276;28;20112;-58
2023/07/13 03:31:26;;;;;;;0.43;0.40;;;;;;;;;;5054219;28;20029;-53
2023/07/13 03:33:54;;;;;;;0.60;0.40;;;;;;;;;;5054413;28;20025;-52
2023/07/13 03:36:24;;;;;;;0.50;0.40;;;;;;;;;;5054342;28;20075;-53
2023/07/13 03:38:56;;;;;;;0.65;0.40;;;;;;;;;;5054225;28;20110;-51
2023/07/13 03:41:24;;;;;;;0.50;0.45;;;;;;;;;;5054188;28;20063;-54
2023/07/13 03:43:55;;;;;;;0.60;0.47;;;;;;;;;;5054170;28;20108;-53
2023/07/13 03:46:23;;;;;;;0.50;0.40;;;;;;;;;;5054141;28;20516;-52
2023/07/13 03:48:54;;;;;;;0.45;0.45;;;;;;;;;;5053620;28;20048;-51
2023/07/13 03:51:22;;;;;;;0.68;0.50;;;;;;;;;;5054044;28;20466;-54
2023/07/13 03:53:50;;;;;;;0.88;0.50;;;;;;;;;;5053936;28;20123;-53
2023/07/13 03:56:18;;;;;;;0.40;0.38;;;;;;;;;;5053706;28;20380;-53
2023/07/13 03:59:02;;;;;;;;;;;;;;;;;;;;;
2023/07/13 04:01:29;;;;;;;0.82;0.50;;;;;;;;;;5053608;28;20033;-55
2023/07/13 04:03:56;;;;;;;0.47;0.40;;;;;;;;;;5053736;28;20120;-52
2023/07/13 04:06:27;;;;;;;0.40;0.40;;;;;;;;;;5053768;28;20029;-54
2023/07/13 04:08:56;;;;;;;0.50;0.40;;;;;;;;;;5053616;28;20487;-51
2023/07/13 04:11:24;;;;;;;0.73;0.60;;;;;;;;;;5053700;28;20081;-51
2023/07/13 04:13:51;;;;;;;0.50;0.40;;;;;;;;;;5053557;28;20049;-52
2023/07/13 04:16:19;;;;;;;0.93;0.50;;;;;;;;;;5052287;28;20441;-53
2023/07/13 04:18:46;;;;;;;0.63;0.50;;;;;;;;;;5053487;28;20043;-52
2023/07/13 04:21:14;;;;;;;0.57;0.35;;;;;;;;;;5053508;28;20029;-52
2023/07/13 04:23:41;;;;;;;0.60;0.50;;;;;;;;;;5053383;28;20387;-54
2023/07/13 04:26:08;;;;;;;0.50;0.40;;;;;;;;;;5053607;28;20104;-52
2023/07/13 04:28:36;;;;;;;0.40;0.40;;;;;;;;;;5035297;28;20402;-51
2023/07/13 04:31:03;;;;;;;0.55;0.43;;;;;;;;;;5052991;28;20061;-52
2023/07/13 04:33:30;;;;;;;0.68;0.40;;;;;;;;;;5053270;28;20028;-53
2023/07/13 04:35:59;;;;;;;0.60;0.50;;;;;;;;;;5053135;28;20025;-52
2023/07/13 04:38:27;;;;;;;0.47;0.40;;;;;;;;;;5052974;28;20033;-50
2023/07/13 04:40:56;;;;;;;0.30;0.30;;;;;;;;;;5053008;28;20028;-53
2023/07/13 04:43:27;;;;;;;0.40;0.40;;;;;;;;;;5053086;28;20033;-53
2023/07/13 04:45:54;;;;;;;0.30;0.30;;;;;;;;;;5053025;28;20033;-55
2023/07/13 04:48:21;;;;;;;0.40;0.40;;;;;;;;;;5052842;28;20411;-52
2023/07/13 04:50:49;;;;;;;0.40;0.40;;;;;;;;;;5052855;28;20048;-51
2023/07/13 04:53:16;;;;;;;0.68;0.50;;;;;;;;;;5052962;28;20037;-54
2023/07/13 04:55:43;;;;;;;0.50;0.40;;;;;;;;;;5052902;28;20068;-52
2023/07/13 04:58:10;;;;;;;0.32;0.32;;;;;;;;;;5052742;28;20040;-53
2023/07/13 05:00:37;;;;;;;0.40;0.40;;;;;;;;;;5034705;28;20037;-51
2023/07/13 05:03:04;;;;;;;0.50;0.40;;;;;;;;;;5052713;28;20040;-51
2023/07/13 05:05:31;;;;;;;0.50;0.50;;;;;;;;;;5052693;28;20540;-52
2023/07/13 05:07:58;;;;;;;0.50;0.50;;;;;;;;;;5052485;28;20037;-54
2023/07/13 05:10:25;;;;;;;0.45;0.40;;;;;;;;;;5052396;28;20480;-52
2023/07/13 05:12:52;;;;;;;0.40;0.40;;;;;;;;;;5052369;28;20037;-51
2023/07/13 05:15:22;;;;;;;0.52;0.32;;;;;;;;;;5052456;28;20100;-53
2023/07/13 05:17:49;;;;;;;0.30;0.30;;;;;;;;;;5034461;28;20449;-50
2023/07/13 05:20:17;;;;;;;0.77;0.55;;;;;;;;;;5052256;28;20039;-54
2023/07/13 05:22:46;;;;;;;0.50;0.50;;;;;;;;;;5052253;28;20086;-54
2023/07/13 05:25:14;;;;;;;0.30;0.30;;;;;;;;;;5052215;28;20028;-53
2023/07/13 05:27:41;;;;;;;0.38;0.38;;;;;;;;;;5051805;28;20047;-53
2023/07/13 05:30:11;;;;;;;0.50;0.50;;;;;;;;;;5052121;28;20029;-53
2023/07/13 05:32:38;;;;;;;0.50;0.40;;;;;;;;;;5051819;28;20056;-51
2023/07/13 05:35:05;;;;;;;0.40;0.40;;;;;;;;;;5052106;28;20445;-54
2023/07/13 05:37:32;;;;;;;0.40;0.40;;;;;;;;;;5052075;28;20032;-52
2023/07/13 05:39:59;;;;;;;0.40;0.40;;;;;;;;;;5051952;28;20102;-52
2023/07/13 05:42:26;;;;;;;0.50;0.40;;;;;;;;;;5051970;28;20025;-54
2023/07/13 05:44:53;;;;;;;0.98;0.50;;;;;;;;;;5051899;28;20387;-51
2023/07/13 05:47:20;;;;;;;0.63;0.50;;;;;;;;;;5051843;28;20502;-51
2023/07/13 05:49:47;;;;;;;0.70;0.52;;;;;;;;;;5051802;28;20051;-51
2023/07/13 05:52:14;;;;;;;0.43;0.40;;;;;;;;;;5051867;28;20368;-52
2023/07/13 05:54:41;;;;;;;0.50;0.40;;;;;;;;;;5051827;28;20514;-52
2023/07/13 05:57:08;;;;;;;0.63;0.60;;;;;;;;;;5051760;28;20037;-52
2023/07/13 05:59:35;;;;;;;0.40;0.40;;;;;;;;;;5051652;28;20521;-52
2023/07/13 06:02:02;;;;;;;0.43;0.40;;;;;;;;;;5050518;28;20128;-52
2023/07/13 06:04:29;;;;;;;0.50;0.40;;;;;;;;;;5051711;28;20029;-51
2023/07/13 06:06:56;;;;;;;0.40;0.38;;;;;;;;;;5051549;28;20037;-51
2023/07/13 06:09:23;;;;;;;0.35;0.35;;;;;;;;;;5051697;28;20479;-54
2023/07/13 06:11:50;;;;;;;0.40;0.40;;;;;;;;;;5051547;28;20465;-54
2023/07/13 06:14:17;;;;;;;0.40;0.40;;;;;;;;;;5051912;28;20450;-52
2023/07/13 06:16:44;;;;;;;0.50;0.40;;;;;;;;;;5051512;28;20100;-51
2023/07/13 06:19:11;;;;;;;0.30;0.30;;;;;;;;;;5033456;28;20025;-51
2023/07/13 06:21:38;;;;;;;0.60;0.45;;;;;;;;;;5051358;28;20043;-52
2023/07/13 06:24:05;;;;;;;0.80;0.43;;;;;;;;;;5051558;28;20051;-50
2023/07/13 06:26:32;;;;;;;0.30;0.30;;;;;;;;;;5051504;28;20130;-53
2023/07/13 06:28:59;;;;;;;0.32;0.32;;;;;;;;;;5051286;28;20044;-51
2023/07/13 06:31:26;;;;;;;0.50;0.50;;;;;;;;;;5051095;28;20530;-51
2023/07/13 06:33:53;;;;;;;0.50;0.35;;;;;;;;;;5051400;28;20102;-51
2023/07/13 06:36:20;;;;;;;0.30;0.30;;;;;;;;;;5051385;28;20096;-53
2023/07/13 06:41:16;;;;;;;0.40;0.40;;;;;;;;;;5201826;22;20053;-62
2023/07/13 06:43:43;;;;;;;0.32;0.32;;;;;;;;;;5055991;28;20036;-62
2023/07/13 06:46:10;;;;;;;0.40;0.40;;;;;;;;;;5055266;28;20044;-62
2023/07/13 06:48:37;;;;;;;0.30;0.30;;;;;;;;;;5055194;28;20032;-62
2023/07/13 06:51:04;;;;;;;0.45;0.40;;;;;;;;;;5055153;28;20021;-62
2023/07/13 06:53:32;;;;;;;0.35;0.30;;;;;;;;;;5055150;28;20044;-62
2023/07/13 06:55:59;;;;;;;0.50;0.40;;;;;;;;;;5055155;28;20021;-62
2023/07/13 06:58:26;;;;;;;0.40;0.40;;;;;;;;;;5055076;28;20104;-62
2023/07/13 07:00:53;;;;;;;0.47;0.40;;;;;;;;;;5054915;28;20031;-62
2023/07/13 07:03:20;;;;;;;0.30;0.30;;;;;;;;;;5055535;28;20048;-62
2023/07/13 07:05:47;;;;;;;0.40;0.30;;;;;;;;;;5054871;28;20076;-62
2023/07/13 07:08:14;;;;;;;0.50;0.30;;;;;;;;;;5054797;28;20107;-62
2023/07/13 07:10:41;;;;;;;0.40;0.40;;;;;;;;;;5054765;28;20024;-62
2023/07/13 07:13:08;;;;;;;0.82;0.32;;;;;;;;;;5054812;28;20074;-62
2023/07/13 07:15:36;;;;;;;0.40;0.30;;;;;;;;;;5054693;28;20021;-62
2023/07/13 07:18:03;;;;;;;0.30;0.30;;;;;;;;;;5054726;28;20028;-62
2023/07/13 07:20:30;;;;;;;0.30;0.30;;;;;;;;;;5054607;28;20024;-62
2023/07/13 07:22:57;;;;;;;1.05;0.40;;;;;;;;;;5054662;28;20432;-62
2023/07/13 07:25:24;;;;;;;0.30;0.30;;;;;;;;;;5054578;28;20021;-62
2023/07/13 07:27:51;;;;;;;0.95;0.47;;;;;;;;;;5054374;28;20057;-62
2023/07/13 07:30:18;;;;;;;0.30;0.30;;;;;;;;;;5054405;28;20028;-62
2023/07/13 07:32:45;;;;;;;0.35;0.30;;;;;;;;;;5054448;28;20021;-62
2023/07/13 07:35:12;;;;;;;0.30;0.30;;;;;;;;;;5054410;28;20021;-62
2023/07/13 07:37:39;;;;;;;0.30;0.30;;;;;;;;;;5054296;28;20398;-62
2023/07/13 07:40:07;;;;;;;0.50;0.30;;;;;;;;;;5053998;28;20055;-62
2023/07/13 07:42:34;;;;;;;0.30;0.30;;;;;;;;;;5054121;28;20028;-62
2023/07/13 07:45:01;;;;;;;0.40;0.40;;;;;;;;;;5054079;28;20029;-62
2023/07/13 07:47:29;;;;;;;0.35;0.30;;;;;;;;;;5054111;28;20079;-62
2023/07/13 07:49:56;;;;;;;0.45;0.40;;;;;;;;;;5053745;28;20025;-62
2023/07/13 07:52:23;;;;;;;0.30;0.30;;;;;;;;;;5053910;28;20402;-62
2023/07/13 07:54:50;;;;;;;0.30;0.30;;;;;;;;;;5054045;28;20025;-62
2023/07/13 07:57:17;;;;;;;0.40;0.40;;;;;;;;;;5053964;28;20090;-62
2023/07/13 07:59:44;;;;;;;0.40;0.30;;;;;;;;;;5053803;28;20033;-62
2023/07/13 08:02:12;;;;;;;0.30;0.30;;;;;;;;;;5053819;28;20515;-62
2023/07/13 08:04:39;;;;;;;0.60;0.40;;;;;;;;;;5053875;28;20029;-62
2023/07/13 08:07:06;;;;;;;0.30;0.30;;;;;;;;;;5053792;28;20482;-62
2023/07/13 08:09:33;;;;;;;0.43;0.40;;;;;;;;;;5053771;28;20086;-62
2023/07/13 08:12:00;;;;;;;0.40;0.40;;;;;;;;;;5053663;28;20029;-62
2023/07/13 08:14:27;;;;;;;0.40;0.32;;;;;;;;;;5053635;28;20051;-62
2023/07/13 08:16:54;;;;;;;0.40;0.30;;;;;;;;;;5035592;28;20101;-62
2023/07/13 08:19:21;;;;;;;0.30;0.30;;;;;;;;;;5053458;28;20029;-62
2023/07/13 08:21:48;;;;;;;0.40;0.40;;;;;;;;;;5053546;28;20025;-62
2023/07/13 08:24:18;;;;;;;0.32;0.32;;;;;;;;;;5035470;28;20025;-62
2023/07/13 08:26:48;;;;;;;0.40;0.28;;;;;;;;;;5053290;28;20025;-62
2023/07/13 08:29:15;;;;;;;0.73;0.40;;;;;;;;;;5053396;28;20386;-62
2023/07/13 08:31:42;;;;;;;0.52;0.43;;;;;;;;;;5053280;28;20488;-62
2023/07/13 08:34:09;;;;;;;1.25;0.40;;;;;;;;;;5053274;28;20025;-62
2023/07/13 08:36:37;;;;;;;0.40;0.40;;;;;;;;;;5053233;28;20428;-62
2023/07/13 08:39:04;;;;;;;0.55;0.35;;;;;;;;;;5053148;28;20033;-62
2023/07/13 08:41:31;;;;;;;0.30;0.30;;;;;;;;;;5053025;28;20045;-62
2023/07/13 08:44:00;;;;;;;0.30;0.30;;;;;;;;;;5053102;28;20482;-62
2023/07/13 08:46:31;;;;;;;0.30;0.30;;;;;;;;;;5053021;28;20028;-62
2023/07/13 08:48:59;;;;;;;0.35;0.30;;;;;;;;;;5052894;28;20037;-62
2023/07/13 08:51:35;;;;;;;0.40;0.40;;;;;;;;;;5052972;28;20051;-62
2023/07/13 08:54:03;;;;;;;0.30;0.30;;;;;;;;;;5052961;28;20032;-62
2023/07/13 08:56:31;;;;;;;0.40;0.30;;;;;;;;;;5034878;28;20032;-62
2023/07/13 08:59:06;;;;;;;0.30;0.30;;;;;;;;;;5052719;28;20482;-62
2023/07/13 09:01:50;;;;;;;0.30;0.25;;;;;;;;;;5051964;28;20061;-62
2023/07/13 09:04:22;;;;;;;0.30;0.30;;;;;;;;;;5052716;28;20104;-62
2023/07/13 09:06:48;;;;;;;0.30;0.30;;;;;;;;;;5052343;28;20390;-62
2023/07/13 09:09:21;;;;;;;0.20;0.20;;;;;;;;;;5052467;28;20100;-62
2023/07/13 09:11:57;;;;;;;0.30;0.30;;;;;;;;;;5052535;28;20025;-62
2023/07/13 09:14:36;;;;;;;0.30;0.30;;;;;;;;;;5052550;28;20023;-62
2023/07/13 09:17:11;;;;;;;0.28;0.28;;;;;;;;;;5052436;28;20021;-62
2023/07/13 09:19:38;;;;;;;0.20;0.20;;;;;;;;;;5052208;28;20496;-62
2023/07/13 09:22:09;;;;;;;0.30;0.30;;;;;;;;;;5052372;28;20042;-62
2023/07/13 09:24:37;;;;;;;0.30;0.30;;;;;;;;;;5052321;28;20495;-62
2023/07/13 09:27:10;;;;;;;0.22;0.22;;;;;;;;;;5052140;28;20028;-62
2023/07/13 09:29:38;;;;;;;0.40;0.38;;;;;;;;;;5052178;28;20021;-62
2023/07/13 09:32:07;;;;;;;0.32;0.30;;;;;;;;;;5052197;28;20482;-62
2023/07/13 09:34:34;;;;;;;0.30;0.30;;;;;;;;;;5052146;28;20021;-62
2023/07/13 09:37:01;;;;;;;0.30;0.30;;;;;;;;;;5052065;28;20029;-62
2023/07/13 09:39:35;;;;;;;0.30;0.30;;;;;;;;;;5051715;28;20017;-62
2023/07/13 09:42:18;;;;;;;0.30;0.30;;;;;;;;;;5052074;28;20548;-62
2023/07/13 09:44:45;;;;;;;0.30;0.30;;;;;;;;;;5051964;28;20045;-62
2023/07/13 09:47:23;;;;;;;0.20;0.20;;;;;;;;;;5051855;28;20082;-62
2023/07/13 09:49:55;;;;;;;0.30;0.30;;;;;;;;;;5051632;28;20029;-62
2023/07/13 09:52:22;;;;;;;;;;;;;;;;;;5052287;28;20474;-62
2023/07/13 09:54:50;;;;;;;0.40;0.30;;;;;;;;;;5051842;28;19912;-62
2023/07/13 09:57:19;;;;;;;0.52;0.20;;;;;;;;;;5051775;28;20029;-62
2023/07/13 09:59:48;;;;;;;0.25;0.25;;;;;;;;;;5051651;28;20057;-62
2023/07/13 10:02:29;;;;;;;0.20;0.20;;;;;;;;;;5051746;28;20083;-62
2023/07/13 10:05:00;;;;;;;0.25;0.25;;;;;;;;;;5051668;28;20104;-62
2023/07/13 10:07:27;;;;;;;0.20;0.20;;;;;;;;;;5051383;28;20040;-61
2023/07/13 10:09:55;;;;;;;0.22;0.22;;;;;;;;;;5051597;28;20554;-61
2023/07/13 10:12:27;;;;;;;0.30;0.30;;;;;;;;;;5051481;28;20156;-61
2023/07/13 10:15:00;;;;;;;0.40;0.40;;;;;;;;;;5051418;28;20494;-61
2023/07/13 10:17:32;;;;;;;0.40;0.40;;;;;;;;;;5051571;28;20485;-61
2023/07/13 10:20:04;;;;;;;0.40;0.40;;;;;;;;;;5051443;28;20037;-61
2023/07/13 10:22:34;;;;;;;0.30;0.30;;;;;;;;;;5051612;28;20032;-61
2023/07/13 10:25:01;;;;;;;0.40;0.35;;;;;;;;;;5051483;28;20505;-61
2023/07/13 10:27:34;;;;;;;0.28;0.28;;;;;;;;;;5051367;28;20060;-62
2023/07/13 10:30:16;;;;;;;0.43;0.20;;;;;;;;;;5051646;28;20033;-62
2023/07/13 10:32:43;;;;;;;0.30;0.30;;;;;;;;;;5051419;28;20021;-61
2023/07/13 10:35:12;;;;;;;0.60;0.30;;;;;;;;;;5051229;28;20025;-62
2023/07/13 10:37:50;;;;;;;0.30;0.30;;;;;;;;;;5051373;28;20029;-61
2023/07/13 10:40:30;;;;;;;0.30;0.30;;;;;;;;;;5051151;28;20055;-61
2023/07/13 10:42:58;;;;;;;0.30;0.30;;;;;;;;;;5051363;28;20071;-61
2023/07/13 10:45:25;;;;;;;0.20;0.20;;;;;;;;;;5051532;28;20428;-61
2023/07/13 10:47:55;;;;;;;0.30;0.30;;;;;;;;;;5051206;28;20047;-61
2023/07/13 10:50:24;;;;;;;0.30;0.30;;;;;;;;;;5051285;28;20041;-61
2023/07/13 10:52:57;;;;;;;0.20;0.20;;;;;;;;;;5051052;28;20036;-61
2023/07/13 10:55:36;;;;;;;0.22;0.20;;;;;;;;;;5051065;28;20083;-61
2023/07/13 10:58:10;;;;;;;0.55;0.35;;;;;;;;;;5051134;28;20033;-61
2023/07/13 11:00:44;;;;;;;0.30;0.30;;;;;;;;;;5051106;28;20363;-61
2023/07/13 11:03:14;;;;;;;0.50;0.38;;;;;;;;;;5051210;28;20742;-61
2023/07/13 11:05:41;;;;;;;0.20;0.20;;;;;;;;;;5051089;28;20037;-61
2023/07/13 11:08:14;;;;;;;0.25;0.25;;;;;;;;;;5051038;28;20047;-61
2023/07/13 11:10:52;;;;;;;0.20;0.20;;;;;;;;;;5050980;28;20130;-61
2023/07/13 11:13:35;;;;;;;0.20;0.20;;;;;;;;;;5050908;28;20542;-61
2023/07/13 11:16:01;;;;;;;0.28;0.28;;;;;;;;;;5050997;28;20025;-61
2023/07/13 11:18:28;;;;;;;0.40;0.30;;;;;;;;;;5050872;28;20044;-61
2023/07/13 11:21:13;;;;;;;0.20;0.20;;;;;;;;;;5050899;28;20018;-61
2023/07/13 11:23:44;;;;;;;0.30;0.30;;;;;;;;;;5050974;28;20060;-61
2023/07/13 11:26:31;;;;;;;0.57;0.30;;;;;;;;;;5053063;28;20469;-61
2023/07/13 11:28:58;;;;;;;0.28;0.22;;;;;;;;;;5044015;28;20124;-62
2023/07/13 11:31:25;;;;;;;0.25;0.25;;;;;;;;;;5054520;28;20100;-61
2023/07/13 11:33:54;;;;;;;0.30;0.30;;;;;;;;;;5054415;28;20025;-61
2023/07/13 11:36:24;;;;;;;0.30;0.22;;;;;;;;;;5054373;28;20080;-61
2023/07/13 11:38:57;;;;;;;0.20;0.20;;;;;;;;;;5048302;28;20213;-61
2023/07/13 11:41:28;;;;;;;0.40;0.30;;;;;;;;;;5054160;28;20063;-61
2023/07/13 11:43:56;;;;;;;0.20;0.20;;;;;;;;;;5054278;28;20033;-61
2023/07/13 11:46:25;;;;;;;0.30;0.30;;;;;;;;;;5054263;28;20461;-61
2023/07/13 11:48:52;;;;;;;0.20;0.20;;;;;;;;;;5054013;28;20130;-62
2023/07/13 11:51:22;;;;;;;0.22;0.22;;;;;;;;;;5036415;28;20491;-61
2023/07/13 11:53:50;;;;;;;0.22;0.22;;;;;;;;;;5054121;28;20112;-61
2023/07/13 11:56:17;;;;;;;0.43;0.35;;;;;;;;;;5053956;28;20029;-61
2023/07/13 11:58:44;;;;;;;0.38;0.30;;;;;;;;;;5053926;28;20033;-61
2023/07/13 12:01:18;;;;;;;0.20;0.20;;;;;;;;;;5035895;28;20494;-61
2023/07/13 12:03:46;;;;;;;0.30;0.30;;;;;;;;;;5036007;28;20103;-61
2023/07/13 12:06:22;;;;;;;0.30;0.30;;;;;;;;;;5053831;28;20074;-61
2023/07/13 12:08:49;;;;;;;0.30;0.30;;;;;;;;;;5053632;28;20040;-62
2023/07/13 12:11:17;;;;;;;0.20;0.20;;;;;;;;;;5053758;28;20021;-61
2023/07/13 12:13:45;;;;;;;0.20;0.20;;;;;;;;;;5053725;28;20546;-61
2023/07/13 12:16:13;;;;;;;0.30;0.30;;;;;;;;;;5053717;28;20386;-61
2023/07/13 12:18:41;;;;;;;0.20;0.20;;;;;;;;;;5053447;28;20029;-62
2023/07/13 12:21:14;;;;;;;0.30;0.30;;;;;;;;;;5053475;28;20040;-62
2023/07/13 12:23:43;;;;;;;0.30;0.30;;;;;;;;;;5053396;28;20036;-61
2023/07/13 12:26:11;;;;;;;0.30;0.30;;;;;;;;;;5053518;28;20025;-62
2023/07/13 12:28:39;;;;;;;0.22;0.22;;;;;;;;;;5053242;28;20108;-61
2023/07/13 12:31:15;;;;;;;0.30;0.30;;;;;;;;;;5053430;28;20545;-61
2023/07/13 12:33:43;;;;;;;0.20;0.20;;;;;;;;;;5053342;28;20033;-61
2023/07/13 12:36:13;;;;;;;0.30;0.30;;;;;;;;;;5052557;28;20033;-61
2023/07/13 12:38:40;;;;;;;0.30;0.30;;;;;;;;;;5052643;28;20032;-62
2023/07/13 12:41:09;;;;;;;0.30;0.30;;;;;;;;;;5053047;28;20132;-61
2023/07/13 12:43:38;;;;;;;0.30;0.30;;;;;;;;;;5035028;28;20028;-61
2023/07/13 12:46:15;;;;;;;0.55;0.30;;;;;;;;;;5053117;28;20028;-62
2023/07/13 12:48:45;;;;;;;0.50;0.30;;;;;;;;;;5046800;28;20045;-62
2023/07/13 12:51:15;;;;;;;0.35;0.20;;;;;;;;;;5052814;28;20111;-61
2023/07/13 12:53:48;;;;;;;0.40;0.30;;;;;;;;;;5052942;28;20029;-61
2023/07/13 12:56:21;;;;;;;0.25;0.25;;;;;;;;;;5052877;28;20033;-61
2023/07/13 12:58:54;;;;;;;0.40;0.40;;;;;;;;;;5052726;28;20021;-61
2023/07/13 13:01:23;;;;;;;0.70;0.40;;;;;;;;;;5052626;28;20041;-61
2023/07/13 13:03:54;;;;;;;0.30;0.30;;;;;;;;;;5052767;28;20423;-61
2023/07/13 13:06:23;;;;;;;0.30;0.30;;;;;;;;;;5052750;28;20127;-61
2023/07/13 13:08:52;;;;;;;0.30;0.30;;;;;;;;;;5052519;28;20071;-61
2023/07/13 13:11:20;;;;;;;0.20;0.20;;;;;;;;;;5052614;28;20029;-61
2023/07/13 13:13:47;;;;;;;0.28;0.28;;;;;;;;;;5052594;28;20461;-61
2023/07/13 13:16:31;;;;;;;0.30;0.30;;;;;;;;;;5052504;28;20036;-61
2023/07/13 13:19:00;;;;;;;0.40;0.30;;;;;;;;;;5052148;28;20044;-61
2023/07/13 13:21:27;;;;;;;0.30;0.30;;;;;;;;;;5052406;28;20033;-61
2023/07/13 13:23:54;;;;;;;1.10;0.38;;;;;;;;;;5052345;28;20082;-61
2023/07/13 13:26:22;;;;;;;0.30;0.20;;;;;;;;;;5052305;28;20048;-61
2023/07/13 13:28:49;;;;;;;0.20;0.20;;;;;;;;;;5052123;28;20100;-62
2023/07/13 13:31:16;;;;;;;0.40;0.30;;;;;;;;;;5052182;28;20039;-61
2023/07/13 13:33:45;;;;;;;0.22;0.22;;;;;;;;;;5052170;28;20029;-61
2023/07/13 13:36:15;;;;;;;0.38;0.28;;;;;;;;;;5052180;28;20036;-61
2023/07/13 13:38:42;;;;;;;0.38;0.20;;;;;;;;;;5052017;28;20029;-61
2023/07/13 13:41:14;;;;;;;0.25;0.25;;;;;;;;;;5051873;28;20045;-61
2023/07/13 13:43:42;;;;;;;0.27;0.20;;;;;;;;;;5034168;28;20112;-61
2023/07/13 13:46:15;;;;;;;0.20;0.20;;;;;;;;;;5051981;28;20760;-61
2023/07/13 13:48:42;;;;;;;0.20;0.20;;;;;;;;;;5051472;28;20029;-61
2023/07/13 13:51:23;;;;;;;0.25;0.25;;;;;;;;;;5051773;28;20041;-61
2023/07/13 13:53:50;;;;;;;0.30;0.30;;;;;;;;;;5051924;28;20526;-61
2023/07/13 13:56:18;;;;;;;0.47;0.30;;;;;;;;;;5051862;28;20055;-61
2023/07/13 13:58:46;;;;;;;0.30;0.30;;;;;;;;;;5033714;28;20036;-61
2023/07/13 14:01:22;;;;;;;0.20;0.20;;;;;;;;;;5051744;28;20025;-61
2023/07/13 14:03:51;;;;;;;0.30;0.20;;;;;;;;;;5051689;28;20475;-61
2023/07/13 14:06:18;;;;;;;0.20;0.20;;;;;;;;;;5051548;28;20033;-61
2023/07/13 14:08:46;;;;;;;0.30;0.30;;;;;;;;;;5051548;28;20037;-61
2023/07/13 14:11:18;;;;;;;0.30;0.30;;;;;;;;;;5051682;28;20044;-61
2023/07/13 14:13:47;;;;;;;0.30;0.30;;;;;;;;;;5051608;28;20033;-61
2023/07/13 14:16:17;;;;;;;0.20;0.20;;;;;;;;;;5051581;28;20036;-61
2023/07/13 14:18:47;;;;;;;0.30;0.30;;;;;;;;;;5051534;28;20167;-61
2023/07/13 14:21:15;;;;;;;0.30;0.30;;;;;;;;;;5051545;28;20036;-62
2023/07/13 14:23:42;;;;;;;0.20;0.20;;;;;;;;;;5051441;28;20055;-61
2023/07/13 14:26:17;;;;;;;0.30;0.30;;;;;;;;;;5051496;28;20394;-61
2023/07/13 14:28:45;;;;;;;0.20;0.20;;;;;;;;;;5051318;28;20041;-62
2023/07/13 14:31:13;;;;;;;0.30;0.30;;;;;;;;;;5051463;28;20021;-61
2023/07/13 14:33:40;;;;;;;0.30;0.30;;;;;;;;;;5051416;28;20449;-61
2023/07/13 14:36:27;;;;;;;0.45;0.30;;;;;;;;;;5051372;28;20037;-61
2023/07/13 14:38:54;;;;;;;0.40;0.30;;;;;;;;;;5051140;28;20040;-61
2023/07/13 14:41:22;;;;;;;0.40;0.30;;;;;;;;;;5051215;28;20541;-61
2023/07/13 14:43:49;;;;;;;0.40;0.30;;;;;;;;;;5051327;28;20033;-61
2023/07/13 14:46:23;;;;;;;0.30;0.30;;;;;;;;;;5051158;28;20072;-61
2023/07/13 14:48:50;;;;;;;0.30;0.30;;;;;;;;;;5051153;28;20033;-61
2023/07/13 14:51:17;;;;;;;1.00;0.20;;;;;;;;;;5051288;28;20108;-61
2023/07/13 14:53:44;;;;;;;0.30;0.20;;;;;;;;;;5051256;28;20036;-61
2023/07/13 14:56:14;;;;;;;0.35;0.30;;;;;;;;;;5051063;28;20047;-61
2023/07/13 14:58:41;;;;;;;0.30;0.30;;;;;;;;;;5050883;28;20045;-61
2023/07/13 15:01:16;;;;;;;0.30;0.30;;;;;;;;;;5053614;28;20051;-62
2023/07/13 15:03:45;;;;;;;0.30;0.30;;;;;;;;;;5054997;28;20025;-61
2023/07/13 15:06:13;;;;;;;0.30;0.30;;;;;;;;;;5054949;28;20064;-61